Time;durP1;ratioP1;P1;durP2;ratioP2;P2;SDS_P1;SDS_P2;PMS_P1;PMS_P2;Temp;Humidity;BMP_temperature;BMP_pressure;BME280_temperature;BME280_humidity;BME280_pressure;Samples;Min_cycle;Max_cycle;Signal;HPM_P1;HPM_P2
2022/07/04 00:00:09;;;;;;;5.57;2.38;;;14.70;99.90;;;;;;5029443;28;20057;-68
2022/07/04 00:02:37;;;;;;;3.15;2.20;;;14.80;99.90;;;;;;5016869;28;20417;-68
2022/07/04 00:05:02;;;;;;;3.92;2.35;;;14.70;99.90;;;;;;5014745;28;20102;-68
2022/07/04 00:07:28;;;;;;;3.15;2.08;;;14.70;99.90;;;;;;5029719;28;20386;-68
2022/07/04 00:09:53;;;;;;;3.75;2.05;;;14.60;99.90;;;;;;5029007;28;20577;-67
2022/07/04 00:12:19;;;;;;;5.47;2.78;;;14.60;99.90;;;;;;5020541;28;20418;-67
2022/07/04 00:14:44;;;;;;;5.68;2.63;;;14.60;99.90;;;;;;4992468;28;20041;-68
2022/07/04 00:17:10;;;;;;;7.32;2.47;;;14.40;99.90;;;;;;5029368;28;20467;-68
2022/07/04 00:19:36;;;;;;;7.82;3.35;;;14.40;99.90;;;;;;5017573;28;20049;-67
2022/07/04 00:22:02;;;;;;;5.05;2.67;;;14.40;99.90;;;;;;5028610;28;20092;-68
2022/07/04 00:24:27;;;;;;;5.38;2.58;;;14.40;99.90;;;;;;5029599;28;20028;-68
2022/07/04 00:26:53;;;;;;;4.35;2.33;;;14.30;99.90;;;;;;5027592;28;20632;-68
2022/07/04 00:29:18;;;;;;;6.07;2.80;;;14.40;99.90;;;;;;5028998;28;20036;-68
2022/07/04 00:31:44;;;;;;;4.47;2.60;;;14.30;99.90;;;;;;5029205;28;20029;-68
2022/07/04 00:34:10;;;;;;;2.65;2.25;;;14.30;99.90;;;;;;5029413;28;20378;-68
2022/07/04 00:36:35;;;;;;;9.57;3.10;;;14.20;99.90;;;;;;5029387;28;20100;-68
2022/07/04 00:39:01;;;;;;;6.95;3.13;;;14.30;99.90;;;;;;5028710;28;20098;-68
2022/07/04 00:41:27;;;;;;;6.07;3.10;;;14.30;99.90;;;;;;5028974;28;20038;-68
2022/07/04 00:44:07;;;;;;;4.30;2.10;;;14.20;99.90;;;;;;5028554;28;20021;-67
2022/07/04 00:46:32;;;;;;;5.75;2.63;;;14.20;99.90;;;;;;5029421;28;20029;-68
2022/07/04 00:48:58;;;;;;;7.72;2.80;;;14.20;99.90;;;;;;5016586;28;20022;-67
2022/07/04 00:51:25;;;;;;;6.25;2.65;;;14.10;99.90;;;;;;5029640;28;20045;-68
2022/07/04 00:53:53;;;;;;;6.00;2.83;;;14.00;99.90;;;;;;5028939;28;20410;-68
2022/07/04 00:56:20;;;;;;;8.88;2.95;;;14.00;99.90;;;;;;5028860;28;20064;-68
2022/07/04 00:58:45;;;;;;;4.20;2.87;;;14.10;99.90;;;;;;5028567;28;20036;-68
2022/07/04 01:01:11;;;;;;;5.28;2.67;;;13.90;99.90;;;;;;5028841;28;20029;-68
2022/07/04 01:03:37;;;;;;;8.43;3.17;;;13.80;99.90;;;;;;5028971;28;20033;-68
2022/07/04 01:06:02;;;;;;;11.70;3.10;;;14.20;99.90;;;;;;5028682;28;20029;-68
2022/07/04 01:08:28;;;;;;;5.72;2.70;;;13.90;99.90;;;;;;5028921;28;20129;-68
2022/07/04 01:10:54;;;;;;;5.35;2.20;;;13.70;99.90;;;;;;5028814;28;20048;-68
2022/07/04 01:13:21;;;;;;;4.75;2.80;;;13.90;99.90;;;;;;5028072;28;20136;-68
2022/07/04 01:15:47;;;;;;;3.00;2.42;;;13.90;99.90;;;;;;5028951;28;20037;-68
2022/07/04 01:18:13;;;;;;;4.85;3.50;;;14.10;99.90;;;;;;5010616;28;20068;-67
2022/07/04 01:20:39;;;;;;;6.22;3.10;;;;;;;;;;5028519;28;20045;-68
2022/07/04 01:23:05;;;;;;;7.05;3.97;;;13.70;99.90;;;;;;5028428;28;20022;-67
2022/07/04 01:25:32;;;;;;;5.57;3.45;;;13.70;99.90;;;;;;5028970;28;20030;-68
2022/07/04 01:27:59;;;;;;;5.47;3.42;;;13.60;99.90;;;;;;5028131;28;20032;-68
2022/07/04 01:30:25;;;;;;;5.45;3.60;;;13.70;99.90;;;;;;5028831;28;20348;-68
2022/07/04 01:32:50;;;;;;;8.70;4.20;;;14.20;99.90;;;;;;5028531;28;20045;-68
2022/07/04 01:35:16;;;;;;;8.63;4.43;;;13.70;99.90;;;;;;5028353;28;20438;-68
2022/07/04 01:37:42;;;;;;;7.32;4.45;;;;;;;;;;5028614;28;20025;-68
2022/07/04 01:40:08;;;;;;;6.43;4.30;;;13.60;99.90;;;;;;5028447;28;20220;-68
2022/07/04 01:42:34;;;;;;;6.25;5.25;;;13.60;99.90;;;;;;5014460;28;20040;-68
2022/07/04 01:45:00;;;;;;;8.40;5.10;;;13.60;99.90;;;;;;5028076;28;20033;-68
2022/07/04 01:47:26;;;;;;;5.35;4.78;;;;;;;;;;5028456;28;20039;-68
2022/07/04 01:49:51;;;;;;;6.70;4.45;;;13.60;99.90;;;;;;5028241;28;20470;-67
2022/07/04 01:52:17;;;;;;;7.40;4.70;;;13.60;99.90;;;;;;5029885;28;20024;-67
2022/07/04 01:54:42;;;;;;;7.28;4.53;;;13.50;99.90;;;;;;5032259;28;20018;-68
2022/07/04 01:57:08;;;;;;;9.25;4.90;;;;;;;;;;5031808;28;20422;-68
2022/07/04 02:02:18;;;;;;;6.43;5.05;;;13.50;99.90;;;;;;5032079;28;20028;-67
2022/07/04 02:04:44;;;;;;;5.65;4.45;;;13.40;99.90;;;;;;5032148;28;20425;-68
2022/07/04 02:07:09;;;;;;;7.00;4.75;;;13.50;99.90;;;;;;5032094;28;20021;-67
2022/07/04 02:09:35;;;;;;;6.30;4.68;;;13.50;99.90;;;;;;5010958;28;20026;-68
2022/07/04 02:14:44;;;;;;;;;;;13.40;99.90;;;;;;5032434;28;20132;-68
2022/07/04 02:17:10;;;;;;;7.15;5.10;;;13.40;99.90;;;;;;5013999;28;19925;-68
2022/07/04 02:19:37;;;;;;;7.90;5.53;;;;;;;;;;5031763;28;20049;-68
2022/07/04 02:22:03;;;;;;;7.60;6.53;;;13.40;99.90;;;;;;5031839;28;20021;-68
2022/07/04 02:24:28;;;;;;;7.55;5.80;;;13.00;99.90;;;;;;5013618;28;20025;-68
2022/07/04 02:26:54;;;;;;;6.70;6.03;;;13.40;99.90;;;;;;5031732;28;20106;-67
2022/07/04 02:29:20;;;;;;;14.60;6.00;;;13.30;99.90;;;;;;5031525;28;20021;-67
2022/07/04 02:31:45;;;;;;;6.65;6.03;;;13.30;99.90;;;;;;5031568;28;20033;-68
2022/07/04 02:34:11;;;;;;;8.05;6.78;;;;;;;;;;5031910;28;20362;-68
2022/07/04 02:36:37;;;;;;;10.32;6.22;;;13.20;99.90;;;;;;5031745;28;20147;-68
2022/07/04 02:39:04;;;;;;;10.98;6.38;;;13.10;99.90;;;;;;5030742;28;20096;-68
2022/07/04 02:41:31;;;;;;;11.43;6.47;;;13.20;99.90;;;;;;5031742;28;20474;-68
2022/07/04 02:43:56;;;;;;;9.43;7.68;;;13.30;99.90;;;;;;5031088;28;20041;-68
2022/07/04 02:46:22;;;;;;;9.43;6.85;;;13.10;99.90;;;;;;5031505;28;20052;-68
2022/07/04 02:48:48;;;;;;;12.70;7.22;;;13.10;99.90;;;;;;5031290;28;20020;-68
2022/07/04 02:51:14;;;;;;;10.13;7.38;;;13.10;99.90;;;;;;5031217;28;20104;-68
2022/07/04 02:53:40;;;;;;;9.50;7.57;;;13.20;99.90;;;;;;5030944;28;20029;-68
2022/07/04 02:56:05;;;;;;;9.38;7.40;;;13.20;99.90;;;;;;5030967;28;20080;-68
2022/07/04 02:58:34;;;;;;;9.40;8.43;;;13.10;99.90;;;;;;5031357;28;20434;-68
2022/07/04 03:01:00;;;;;;;11.88;8.50;;;13.20;99.90;;;;;;5031017;28;20041;-68
2022/07/04 03:03:26;;;;;;;8.40;7.43;;;13.10;99.90;;;;;;5030225;28;20049;-68
2022/07/04 03:05:52;;;;;;;12.82;8.95;;;12.80;99.90;;;;;;5031189;28;20462;-68
2022/07/04 03:08:17;;;;;;;10.05;9.07;;;13.20;99.90;;;;;;5030246;28;20529;-68
2022/07/04 03:10:43;;;;;;;12.45;9.70;;;13.20;99.90;;;;;;5031323;28;20037;-68
2022/07/04 03:13:09;;;;;;;13.63;10.35;;;;;;;;;;5030665;28;20486;-68
2022/07/04 03:15:35;;;;;;;13.02;9.82;;;13.20;99.90;;;;;;5030933;28;20079;-68
2022/07/04 03:18:00;;;;;;;13.85;11.13;;;13.10;99.90;;;;;;5030616;28;20045;-68
2022/07/04 03:20:26;;;;;;;12.52;8.90;;;13.10;99.90;;;;;;5030856;28;20029;-68
2022/07/04 03:22:54;;;;;;;12.68;9.77;;;13.10;99.90;;;;;;5030218;28;20040;-68
2022/07/04 03:25:20;;;;;;;10.77;9.65;;;;;;;;;;5030489;28;20022;-68
2022/07/04 03:27:45;;;;;;;10.73;9.68;;;13.10;99.90;;;;;;5030558;28;20029;-67
2022/07/04 03:30:11;;;;;;;15.60;10.70;;;13.10;99.90;;;;;;5028171;28;20037;-68
2022/07/04 03:32:37;;;;;;;12.35;9.93;;;13.10;99.90;;;;;;5019063;28;20704;-68
2022/07/04 03:35:03;;;;;;;11.63;9.60;;;13.20;99.90;;;;;;5025255;28;20038;-68
2022/07/04 03:37:28;;;;;;;10.88;9.77;;;13.10;99.90;;;;;;5010490;28;20026;-68
2022/07/04 03:39:54;;;;;;;11.90;10.25;;;13.10;99.90;;;;;;5027287;28;20041;-68
2022/07/04 03:42:19;;;;;;;10.02;9.05;;;;;;;;;;5022763;28;20101;-67
2022/07/04 03:44:45;;;;;;;12.43;11.23;;;13.00;99.90;;;;;;5010605;28;20467;-67
2022/07/04 03:47:11;;;;;;;11.73;10.38;;;;;;;;;;5029493;28;20462;-68
2022/07/04 03:49:37;;;;;;;12.15;9.95;;;13.00;99.90;;;;;;5028938;28;20029;-68
2022/07/04 03:52:02;;;;;;;10.30;8.98;;;13.00;99.90;;;;;;5029565;28;20026;-68
2022/07/04 03:54:28;;;;;;;11.35;9.50;;;13.00;99.90;;;;;;5030257;28;20395;-67
2022/07/04 03:56:54;;;;;;;12.27;9.55;;;13.00;99.90;;;;;;5029975;28;20109;-68
2022/07/04 03:59:20;;;;;;;16.88;9.57;;;13.00;99.90;;;;;;5029765;28;20471;-68
2022/07/04 04:01:46;;;;;;;11.57;9.80;;;12.70;99.90;;;;;;5030058;28;20030;-68
2022/07/04 04:06:55;;;;;;;13.13;9.07;;;12.90;99.90;;;;;;5016421;28;20056;-68
2022/07/04 04:09:22;;;;;;;10.88;8.57;;;13.00;99.90;;;;;;5029634;28;20454;-68
2022/07/04 04:11:47;;;;;;;10.32;9.30;;;13.10;99.90;;;;;;5029932;28;20025;-68
2022/07/04 04:14:14;;;;;;;11.48;8.70;;;12.90;99.90;;;;;;5029985;28;20029;-68
2022/07/04 04:16:41;;;;;;;11.75;8.48;;;13.10;99.90;;;;;;5029676;28;20025;-67
2022/07/04 04:19:06;;;;;;;10.40;8.50;;;13.10;99.90;;;;;;5029504;28;20069;-68
2022/07/04 04:21:32;;;;;;;11.27;8.60;;;;;;;;;;5029255;28;20523;-68
2022/07/04 04:23:58;;;;;;;10.38;9.48;;;13.20;99.90;;;;;;5029706;28;20458;-68
2022/07/04 04:26:23;;;;;;;8.98;8.13;;;13.20;99.90;;;;;;5029690;28;20367;-68
2022/07/04 04:28:49;;;;;;;9.95;8.27;;;13.30;99.90;;;;;;5029253;28;20505;-68
2022/07/04 04:31:17;;;;;;;9.55;7.95;;;13.30;99.90;;;;;;5018749;28;20372;-68
2022/07/04 04:33:42;;;;;;;9.50;8.60;;;;;;;;;;5026479;28;20017;-67
2022/07/04 04:36:08;;;;;;;10.80;8.63;;;13.40;99.90;;;;;;5029066;28;20497;-68
2022/07/04 04:38:34;;;;;;;11.07;8.25;;;;;;;;;;5015193;28;20077;-67
2022/07/04 04:40:59;;;;;;;7.90;7.20;;;13.50;99.90;;;;;;5029039;28;20147;-68
2022/07/04 04:43:25;;;;;;;8.65;7.13;;;13.60;99.90;;;;;;5029399;28;20021;-68
2022/07/04 04:45:51;;;;;;;9.32;8.30;;;13.70;99.90;;;;;;5028904;28;20529;-68
2022/07/04 04:48:16;;;;;;;9.48;6.70;;;13.80;99.90;;;;;;5029072;28;20422;-68
2022/07/04 04:50:42;;;;;;;8.00;6.88;;;;;;;;;;5028621;28;20026;-68
2022/07/04 04:53:07;;;;;;;7.53;6.50;;;13.80;99.90;;;;;;5028693;28;20018;-67
2022/07/04 04:55:33;;;;;;;8.18;7.07;;;;;;;;;;5027864;23;20053;-69
2022/07/04 04:57:59;;;;;;;9.07;6.63;;;13.80;99.90;;;;;;5010321;28;20030;-69
2022/07/04 05:00:24;;;;;;;10.88;6.47;;;14.10;99.90;;;;;;5010794;28;20034;-69
2022/07/04 05:02:50;;;;;;;8.57;6.55;;;;;;;;;;5010357;28;20475;-69
2022/07/04 05:05:16;;;;;;;9.65;7.00;;;14.10;99.90;;;;;;5010088;28;20159;-69
2022/07/04 05:07:42;;;;;;;8.20;6.82;;;;;;;;;;4992784;28;20037;-69
2022/07/04 05:10:08;;;;;;;8.30;6.95;;;14.30;99.90;;;;;;5010412;28;20059;-68
2022/07/04 05:12:34;;;;;;;10.18;6.88;;;14.20;99.90;;;;;;5009901;28;20456;-69
2022/07/04 05:14:59;;;;;;;8.30;6.53;;;14.40;99.90;;;;;;5008020;28;20064;-68
2022/07/04 05:17:25;;;;;;;12.05;7.07;;;;;;;;;;5010494;28;20044;-68
2022/07/04 05:19:51;;;;;;;10.50;6.82;;;14.70;99.90;;;;;;5007585;28;20038;-68
2022/07/04 05:22:17;;;;;;;9.48;7.90;;;14.80;99.90;;;;;;5009766;28;20064;-69
2022/07/04 05:24:43;;;;;;;10.40;7.90;;;15.00;99.90;;;;;;5009658;28;20018;-68
2022/07/04 05:27:08;;;;;;;11.25;6.70;;;14.70;99.90;;;;;;5007940;28;20044;-69
2022/07/04 05:29:34;;;;;;;8.75;7.07;;;14.40;99.90;;;;;;5010021;28;20037;-69
2022/07/04 05:32:00;;;;;;;7.75;6.45;;;;;;;;;;5004180;28;20030;-69
2022/07/04 05:34:26;;;;;;;9.40;6.78;;;;;;;;;;4993860;28;20052;-68
2022/07/04 05:36:52;;;;;;;9.50;6.40;;;15.00;99.90;;;;;;5002257;28;20506;-68
2022/07/04 05:39:17;;;;;;;8.00;5.18;;;15.30;99.90;;;;;;5007976;28;20391;-69
2022/07/04 05:41:43;;;;;;;10.02;6.20;;;15.10;99.90;;;;;;5008304;28;20034;-69
2022/07/04 05:44:08;;;;;;;12.20;5.68;;;15.70;99.90;;;;;;5009119;28;20499;-69
2022/07/04 05:46:35;;;;;;;7.43;5.22;;;15.60;99.90;;;;;;5009135;28;20549;-69
2022/07/04 05:49:00;;;;;;;11.80;6.35;;;16.00;99.90;;;;;;5007859;28;20022;-69
2022/07/04 05:51:26;;;;;;;9.98;6.47;;;15.80;99.90;;;;;;5009561;28;20022;-69
2022/07/04 05:53:51;;;;;;;8.13;5.85;;;16.10;99.90;;;;;;4991680;28;20475;-69
2022/07/04 05:56:17;;;;;;;13.85;6.93;;;16.20;99.90;;;;;;5009022;28;20486;-69
2022/07/04 05:58:42;;;;;;;14.25;6.40;;;16.00;99.90;;;;;;5009286;28;20038;-69
2022/07/04 06:01:08;;;;;;;7.20;5.55;;;16.10;99.90;;;;;;5008737;28;20041;-69
2022/07/04 06:03:36;;;;;;;11.57;6.60;;;16.10;99.90;;;;;;5009040;28;20026;-69
2022/07/04 06:06:04;;;;;;;7.28;5.35;;;16.30;99.90;;;;;;5008838;28;20029;-68
2022/07/04 06:08:29;;;;;;;7.78;6.05;;;16.20;99.90;;;;;;4991759;28;20483;-69
2022/07/04 06:10:55;;;;;;;7.60;5.20;;;16.40;99.90;;;;;;5009070;28;20107;-69
2022/07/04 06:13:21;;;;;;;7.05;5.18;;;16.80;99.90;;;;;;5009230;28;20030;-69
2022/07/04 06:15:47;;;;;;;7.47;5.55;;;16.90;99.90;;;;;;5004946;28;20022;-69
2022/07/04 06:18:13;;;;;;;6.75;5.22;;;17.10;99.90;;;;;;5004643;28;20023;-69
2022/07/04 06:20:42;;;;;;;9.68;5.38;;;17.20;99.90;;;;;;5008993;28;20041;-68
2022/07/04 06:23:07;;;;;;;9.38;6.05;;;17.40;99.90;;;;;;4991493;28;20553;-69
2022/07/04 06:25:34;;;;;;;8.02;5.85;;;17.30;99.90;;;;;;5004587;28;20069;-69
2022/07/04 06:28:00;;;;;;;10.18;6.70;;;17.50;99.90;;;;;;5007554;28;20479;-69
2022/07/04 06:30:26;;;;;;;5.63;4.97;;;17.70;99.90;;;;;;5008352;28;20033;-69
2022/07/04 06:32:57;;;;;;;8.38;5.30;;;17.80;99.90;;;;;;5008878;28;20018;-69
2022/07/04 06:38:09;;;;;;;6.80;5.55;;;18.10;99.90;;;;;;5008677;28;20053;-69
2022/07/04 06:40:36;;;;;;;11.27;5.47;;;18.90;99.90;;;;;;5008797;28;20112;-69
2022/07/04 06:43:02;;;;;;;8.55;5.60;;;18.60;99.90;;;;;;5012260;28;20553;-69
2022/07/04 06:45:28;;;;;;;6.30;5.28;;;18.70;99.90;;;;;;5009510;28;20049;-70
2022/07/04 06:47:53;;;;;;;9.77;5.47;;;18.70;99.90;;;;;;5006181;28;20116;-69
2022/07/04 06:50:19;;;;;;;8.73;4.65;;;18.60;99.90;;;;;;5007774;28;20033;-69
2022/07/04 06:52:45;;;;;;;10.55;4.85;;;18.70;99.90;;;;;;5012107;28;20021;-69
2022/07/04 06:55:10;;;;;;;7.40;4.88;;;18.70;99.90;;;;;;5012029;28;20057;-69
2022/07/04 06:57:36;;;;;;;7.90;5.32;;;20.60;99.90;;;;;;5008601;28;20030;-69
2022/07/04 07:00:04;;;;;;;9.02;4.60;;;18.70;99.90;;;;;;5007146;28;20038;-69
2022/07/04 07:02:30;;;;;;;10.70;5.38;;;18.70;99.90;;;;;;5012333;28;20030;-69
2022/07/04 07:04:56;;;;;;;12.48;5.55;;;18.60;99.90;;;;;;5011541;28;20034;-69
2022/07/04 07:07:24;;;;;;;7.32;5.47;;;18.80;99.90;;;;;;5012131;28;20026;-69
2022/07/04 07:09:50;;;;;;;8.98;4.88;;;18.90;99.90;;;;;;5009795;28;20026;-69
2022/07/04 07:12:16;;;;;;;11.15;4.88;;;19.00;99.90;;;;;;5011891;28;20025;-69
2022/07/04 07:14:42;;;;;;;10.35;5.18;;;19.10;99.90;;;;;;5010283;28;20534;-69
2022/07/04 07:17:07;;;;;;;10.20;4.82;;;19.20;99.90;;;;;;5004946;28;20026;-69
2022/07/04 07:19:34;;;;;;;9.75;5.00;;;19.40;99.90;;;;;;5017968;23;20050;-68
2022/07/04 07:21:59;;;;;;;6.63;5.18;;;19.40;99.90;;;;;;5005832;28;20309;-68
2022/07/04 07:24:25;;;;;;;7.85;5.15;;;19.30;99.90;;;;;;5010093;28;20041;-68
2022/07/04 07:26:52;;;;;;;11.32;5.07;;;19.40;99.90;;;;;;5007570;28;20026;-69
2022/07/04 07:29:18;;;;;;;9.73;5.05;;;21.80;99.90;;;;;;5008574;28;20080;-68
2022/07/04 07:31:43;;;;;;;10.57;4.80;;;19.70;99.90;;;;;;5009743;28;20174;-68
2022/07/04 07:34:09;;;;;;;13.07;5.15;;;19.70;99.90;;;;;;5010317;28;20108;-69
2022/07/04 07:36:34;;;;;;;8.50;5.70;;;19.80;99.90;;;;;;5010156;28;20030;-68
2022/07/04 07:39:00;;;;;;;7.78;5.68;;;20.00;99.90;;;;;;5009763;28;20025;-69
2022/07/04 07:41:26;;;;;;;9.88;4.97;;;20.00;99.90;;;;;;5007498;28;20038;-68
2022/07/04 07:43:51;;;;;;;11.32;6.60;;;20.00;99.90;;;;;;5008922;28;20037;-68
2022/07/04 07:46:17;;;;;;;11.70;6.18;;;20.00;99.90;;;;;;5008266;28;20091;-68
2022/07/04 07:48:43;;;;;;;10.82;7.00;;;19.90;99.90;;;;;;5009383;28;20022;-68
2022/07/04 07:51:10;;;;;;;8.73;6.55;;;21.30;99.90;;;;;;5009317;28;20033;-69
2022/07/04 07:53:35;;;;;;;10.77;7.35;;;19.90;99.90;;;;;;5009549;28;20030;-69
2022/07/04 07:56:01;;;;;;;15.50;6.40;;;20.90;99.90;;;;;;5009804;28;20034;-69
2022/07/04 07:58:27;;;;;;;11.13;6.45;;;19.90;99.90;;;;;;5009450;28;20021;-68
2022/07/04 08:00:52;;;;;;;10.85;7.63;;;19.90;99.90;;;;;;5009607;28;20053;-68
2022/07/04 08:06:02;;;;;;;12.85;6.85;;;20.70;99.90;;;;;;5009885;28;20096;-69
2022/07/04 08:08:28;;;;;;;10.50;7.40;;;20.20;99.90;;;;;;5009650;28;20030;-69
2022/07/04 08:10:54;;;;;;;12.55;6.82;;;20.80;99.90;;;;;;5009621;28;20034;-68
2022/07/04 08:13:20;;;;;;;10.85;5.70;;;20.70;99.90;;;;;;5008271;28;20033;-68
2022/07/04 08:15:46;;;;;;;9.05;6.10;;;20.80;99.90;;;;;;5002877;28;20041;-68
2022/07/04 08:18:11;;;;;;;9.90;6.30;;;20.90;99.70;;;;;;5009135;28;20050;-68
2022/07/04 08:20:37;;;;;;;10.23;6.82;;;21.20;99.50;;;;;;5009571;28;20041;-68
2022/07/04 08:23:03;;;;;;;14.93;6.57;;;21.30;99.50;;;;;;5004387;28;20084;-68
2022/07/04 08:25:28;;;;;;;12.15;6.75;;;22.30;99.30;;;;;;4991704;28;20064;-69
2022/07/04 08:27:54;;;;;;;13.40;7.65;;;21.30;98.90;;;;;;5008251;28;20040;-69
2022/07/04 08:30:19;;;;;;;11.73;6.88;;;21.30;98.90;;;;;;5008949;28;20037;-68
2022/07/04 08:32:45;;;;;;;9.98;7.15;;;21.40;98.80;;;;;;5009459;28;20045;-68
2022/07/04 08:35:10;;;;;;;11.80;6.53;;;21.50;98.60;;;;;;5008625;28;20034;-68
2022/07/04 08:37:36;;;;;;;10.48;7.32;;;21.50;98.40;;;;;;5009545;28;20038;-69
2022/07/04 08:40:06;;;;;;;8.10;6.30;;;22.40;98.50;;;;;;5006594;28;20087;-69
2022/07/04 08:42:36;;;;;;;8.55;6.13;;;22.00;98.20;;;;;;5006669;28;20476;-68
2022/07/04 08:45:03;;;;;;;8.75;5.95;;;21.90;98.30;;;;;;5003252;28;20506;-69
2022/07/04 08:47:32;;;;;;;10.30;5.93;;;21.90;97.90;;;;;;5009123;28;20037;-69
2022/07/04 08:50:13;;;;;;;9.32;6.70;;;22.10;97.90;;;;;;5008507;28;20036;-68
2022/07/04 08:52:41;;;;;;;8.55;6.68;;;22.00;96.90;;;;;;5008958;28;20026;-69
2022/07/04 09:00:38;;;;;;;14.95;6.50;;;21.70;97.60;;;;;;5003071;28;20080;-68
2022/07/04 09:03:04;;;;;;;13.68;6.28;;;21.30;97.80;;;;;;4990040;28;20472;-68
2022/07/04 09:05:34;;;;;;;10.98;6.72;;;21.60;98.00;;;;;;5009264;28;20053;-69
2022/07/04 09:08:01;;;;;;;11.75;7.20;;;21.50;98.10;;;;;;5002090;28;20427;-69
2022/07/04 09:10:27;;;;;;;14.13;7.55;;;21.90;98.30;;;;;;5008237;28;20033;-68
2022/07/04 09:12:53;;;;;;;13.13;7.05;;;22.30;98.20;;;;;;5008586;28;20401;-69
2022/07/04 09:15:19;;;;;;;10.43;6.32;;;21.70;97.80;;;;;;5002754;28;20033;-69
2022/07/04 09:17:46;;;;;;;8.23;6.32;;;22.40;97.90;;;;;;5007893;28;20045;-68
2022/07/04 09:20:21;;;;;;;7.18;5.65;;;21.80;97.70;;;;;;5007936;28;20026;-68
2022/07/04 09:22:50;;;;;;;12.45;6.18;;;22.00;96.80;;;;;;5001251;28;20049;-69
2022/07/04 09:25:16;;;;;;;8.50;5.93;;;22.10;97.10;;;;;;5007577;28;20090;-72
2022/07/04 09:27:47;;;;;;;11.55;6.43;;;22.10;96.70;;;;;;5007697;28;20041;-72
2022/07/04 09:30:15;;;;;;;10.50;5.43;;;22.30;96.80;;;;;;5006517;28;20072;-71
2022/07/04 09:32:43;;;;;;;8.30;6.03;;;22.50;96.60;;;;;;5008319;28;20030;-72
2022/07/04 09:35:20;;;;;;;8.15;4.90;;;22.70;95.90;;;;;;5007279;28;20034;-72
2022/07/04 09:37:51;;;;;;;10.63;5.05;;;22.60;95.80;;;;;;5017053;28;20036;-72
2022/07/04 09:43:22;;;;;;;7.72;3.47;;;22.60;96.10;;;;;;5008857;28;20402;-72
2022/07/04 09:45:58;;;;;;;11.23;3.95;;;22.20;95.90;;;;;;5008303;28;20022;-72
2022/07/04 09:48:25;;;;;;;9.18;3.58;;;22.20;95.50;;;;;;5008840;28;20026;-73
2022/07/04 09:50:51;;;;;;;5.90;3.55;;;22.50;95.80;;;;;;5009148;28;20459;-72
2022/07/04 09:53:17;;;;;;;8.25;2.67;;;23.30;95.60;;;;;;5008692;28;20029;-72
2022/07/04 09:55:43;;;;;;;7.30;2.20;;;22.80;95.20;;;;;;5008329;28;20030;-72
2022/07/04 09:58:13;;;;;;;4.88;2.45;;;22.90;94.90;;;;;;5008373;28;20048;-73
2022/07/04 10:00:40;;;;;;;5.35;2.35;;;22.80;95.10;;;;;;5008757;28;20129;-72
2022/07/04 10:03:23;;;;;;;5.85;3.13;;;22.80;94.80;;;;;;5008088;28;20053;-72
2022/07/04 10:06:03;;;;;;;5.38;2.42;;;22.80;94.10;;;;;;5008387;28;20100;-72
2022/07/04 10:08:28;;;;;;;6.07;2.95;;;22.90;95.00;;;;;;5008437;28;20076;-72
2022/07/04 10:10:59;;;;;;;4.93;2.05;;;22.70;94.50;;;;;;5008399;28;20025;-73
2022/07/04 10:13:25;;;;;;;6.80;2.40;;;22.60;94.80;;;;;;5011022;28;20036;-73
2022/07/04 10:15:51;;;;;;;5.38;1.80;;;22.80;94.40;;;;;;5012471;28;20029;-73
2022/07/04 10:18:19;;;;;;;6.63;1.92;;;23.00;94.00;;;;;;5011561;28;20156;-72
2022/07/04 10:20:45;;;;;;;3.53;3.00;;;23.20;93.80;;;;;;5012532;28;20045;-72
2022/07/04 10:23:12;;;;;;;4.72;2.40;;;23.30;93.20;;;;;;5011826;28;20026;-72
2022/07/04 10:25:38;;;;;;;6.18;1.80;;;23.40;93.00;;;;;;5012273;28;20176;-72
2022/07/04 10:28:04;;;;;;;4.75;1.92;;;23.40;92.70;;;;;;5012072;28;20026;-73
2022/07/04 10:30:37;;;;;;;8.05;3.70;;;23.50;92.50;;;;;;5012024;28;20428;-72
2022/07/04 10:33:05;;;;;;;3.33;2.05;;;23.30;91.60;;;;;;5012125;28;20022;-73
2022/07/04 10:35:54;;;;;;;6.05;2.20;;;23.30;92.40;;;;;;5011946;28;20048;-72
2022/07/04 10:38:25;;;;;;;4.32;1.95;;;23.10;91.70;;;;;;5011309;28;20037;-72
2022/07/04 10:41:01;;;;;;;3.95;1.88;;;22.90;92.40;;;;;;5011765;28;20036;-73
2022/07/04 10:43:41;;;;;;;4.97;1.80;;;22.60;92.70;;;;;;5011655;28;20018;-73
2022/07/04 10:46:12;;;;;;;3.83;1.88;;;22.50;92.10;;;;;;5011720;28;20029;-72
2022/07/04 10:48:52;;;;;;;5.63;2.30;;;22.50;92.90;;;;;;5011541;28;20491;-72
2022/07/04 10:51:45;;;;;;;4.35;1.95;;;22.50;92.10;;;;;;5011387;28;20021;-72
2022/07/04 10:54:15;;;;;;;2.38;1.40;;;22.70;92.00;;;;;;5011676;28;20036;-72
2022/07/04 10:56:42;;;;;;;4.50;1.50;;;22.80;91.20;;;;;;5011415;28;20113;-73
2022/07/04 10:59:28;;;;;;;3.80;1.65;;;22.90;91.90;;;;;;5011606;28;20056;-72
2022/07/04 11:02:09;;;;;;;3.03;1.27;;;24.10;92.10;;;;;;5011436;28;20030;-72
2022/07/04 11:04:56;;;;;;;5.07;1.70;;;23.20;91.70;;;;;;5011145;28;20029;-72
2022/07/04 11:07:37;;;;;;;3.13;1.42;;;23.40;90.70;;;;;;5011067;28;20018;-72
2022/07/04 11:12:55;;;;;;;3.20;1.52;;;23.40;91.20;;;;;;5011775;28;20117;-73
2022/07/04 11:15:27;;;;;;;3.47;1.83;;;23.10;91.40;;;;;;5010992;28;20068;-73
2022/07/04 11:17:58;;;;;;;4.97;1.30;;;23.60;91.50;;;;;;5011036;28;20131;-72
2022/07/04 11:20:25;;;;;;;4.70;2.03;;;23.60;91.80;;;;;;5011247;28;20467;-72
2022/07/04 11:22:51;;;;;;;2.58;1.25;;;22.80;91.50;;;;;;5011089;28;20034;-72
2022/07/04 11:25:16;;;;;;;4.15;1.50;;;24.50;91.70;;;;;;5010325;28;20537;-73
2022/07/04 11:27:42;;;;;;;3.40;1.10;;;23.30;91.20;;;;;;5010926;28;20041;-72
2022/07/04 11:30:10;;;;;;;3.83;1.80;;;23.40;90.60;;;;;;5010758;28;20028;-72
2022/07/04 11:32:38;;;;;;;4.75;1.52;;;23.50;90.00;;;;;;5011205;28;20058;-72
2022/07/04 11:35:05;;;;;;;2.28;1.10;;;24.10;90.10;;;;;;5010234;28;20116;-73
2022/07/04 11:37:31;;;;;;;4.00;1.83;;;23.80;89.50;;;;;;5010986;28;20744;-73
2022/07/04 11:46:11;;;;;;;1.50;0.75;;;23.70;87.70;;;;;;4930705;29;20099;-74
2022/07/04 11:48:37;;;;;;;3.25;1.42;;;24.10;89.50;;;;;;4930752;29;20062;-71
2022/07/04 11:51:02;;;;;;;4.22;1.73;;;23.90;87.70;;;;;;4930103;29;20549;-71
2022/07/04 11:53:28;;;;;;;2.30;1.00;;;23.60;87.80;;;;;;4930857;29;20032;-71
2022/07/04 11:56:01;;;;;;;5.15;1.40;;;23.70;88.10;;;;;;4930499;29;20043;-71
2022/07/04 11:58:39;;;;;;;1.90;1.20;;;24.50;89.00;;;;;;4930919;29;20032;-71
2022/07/04 12:01:04;;;;;;;3.00;1.15;;;23.50;88.50;;;;;;4930062;29;20039;-71
2022/07/04 12:03:32;;;;;;;4.20;1.38;;;23.30;87.80;;;;;;4930790;29;20042;-72
2022/07/04 12:06:05;;;;;;;4.40;1.40;;;23.40;88.50;;;;;;4929993;29;20066;-73
2022/07/04 12:08:31;;;;;;;5.47;1.30;;;23.50;87.00;;;;;;4930367;29;20385;-72
2022/07/04 12:10:57;;;;;;;3.83;1.17;;;24.90;88.60;;;;;;4930507;29;20072;-71
2022/07/04 12:13:23;;;;;;;2.47;1.33;;;23.40;87.60;;;;;;4930080;29;20098;-72
2022/07/04 12:15:51;;;;;;;2.85;1.10;;;23.30;87.50;;;;;;4930365;29;20192;-72
2022/07/04 12:18:21;;;;;;;3.33;1.25;;;24.20;88.20;;;;;;4929700;29;20473;-73
2022/07/04 12:20:48;;;;;;;3.90;2.00;;;23.10;88.00;;;;;;4929657;29;20031;-72
2022/07/04 12:23:14;;;;;;;3.17;1.63;;;23.60;88.50;;;;;;4997625;28;20095;-72
2022/07/04 12:25:39;;;;;;;7.45;1.42;;;23.70;88.60;;;;;;5009951;28;20025;-72
2022/07/04 12:28:10;;;;;;;2.45;1.40;;;23.00;88.60;;;;;;5009673;28;20021;-72
2022/07/04 12:30:48;;;;;;;4.13;1.15;;;24.50;90.10;;;;;;5010021;28;20026;-73
2022/07/04 12:33:14;;;;;;;2.30;0.90;;;23.10;89.20;;;;;;5009249;28;20212;-72
2022/07/04 12:35:48;;;;;;;2.92;1.17;;;23.00;88.10;;;;;;5009251;28;20212;-71
2022/07/04 12:38:23;;;;;;;2.00;1.23;;;23.00;88.60;;;;;;4991711;28;20117;-71
2022/07/04 12:40:54;;;;;;;2.67;1.00;;;23.10;86.20;;;;;;5009372;28;20430;-71
2022/07/04 12:43:45;;;;;;;1.60;0.93;;;23.10;87.50;;;;;;5009658;28;20018;-71
2022/07/04 12:46:26;;;;;;;0.93;0.75;;;23.10;86.90;;;;;;5008944;28;20034;-71
2022/07/04 12:48:56;;;;;;;2.35;0.90;;;23.00;85.80;;;;;;5009189;28;20112;-71
2022/07/04 12:51:27;;;;;;;1.48;0.90;;;23.10;85.60;;;;;;5009407;28;20427;-71
2022/07/04 12:53:55;;;;;;;2.90;1.00;;;23.10;85.90;;;;;;5009361;28;20029;-71
2022/07/04 12:56:47;;;;;;;3.33;1.10;;;23.20;85.20;;;;;;5009424;28;20064;-71
2022/07/04 12:59:19;;;;;;;2.72;1.05;;;23.20;85.80;;;;;;5007199;28;20038;-71
2022/07/04 13:01:45;;;;;;;2.42;1.02;;;24.30;85.60;;;;;;4995689;28;20034;-71
2022/07/04 13:04:12;;;;;;;4.70;1.30;;;23.50;84.00;;;;;;5008752;28;20025;-71
2022/07/04 13:06:38;;;;;;;2.30;0.95;;;23.60;83.40;;;;;;5009178;28;20109;-71
2022/07/04 13:09:07;;;;;;;2.13;0.73;;;24.80;83.50;;;;;;5009130;28;20022;-71
2022/07/04 13:14:18;;;;;;;4.00;1.27;;;23.90;81.40;;;;;;5009630;28;20045;-73
2022/07/04 13:16:43;;;;;;;3.63;1.20;;;25.30;81.60;;;;;;5008895;28;20113;-73
2022/07/04 13:19:09;;;;;;;3.15;1.08;;;24.30;80.60;;;;;;5008824;28;20122;-73
2022/07/04 13:21:35;;;;;;;3.42;1.02;;;24.10;80.10;;;;;;5008857;28;20037;-71
2022/07/04 13:24:01;;;;;;;2.17;1.00;;;24.10;80.00;;;;;;5008894;28;20510;-71